sensor_id;sensor_type;location;lat;lon;timestamp;P1;durP1;ratioP1;P2;durP2;ratioP2
62338;SDS011;48368;53.406;6.214;2023-06-10T00:00:23;13.00;;;7.95;;
62338;SDS011;48368;53.406;6.214;2023-06-10T00:02:49;13.63;;;7.65;;
62338;SDS011;48368;53.406;6.214;2023-06-10T00:05:15;14.30;;;7.30;;
62338;SDS011;48368;53.406;6.214;2023-06-10T00:07:41;12.98;;;7.50;;
62338;SDS011;48368;53.406;6.214;2023-06-10T00:10:07;12.13;;;7.47;;
62338;SDS011;48368;53.406;6.214;2023-06-10T00:12:33;12.73;;;7.32;;
62338;SDS011;48368;53.406;6.214;2023-06-10T00:15:02;11.73;;;7.43;;
62338;SDS011;48368;53.406;6.214;2023-06-10T00:17:31;15.43;;;7.10;;
62338;SDS011;48368;53.406;6.214;2023-06-10T00:19:57;14.00;;;7.20;;
62338;SDS011;48368;53.406;6.214;2023-06-10T00:22:24;11.90;;;8.07;;
62338;SDS011;48368;53.406;6.214;2023-06-10T00:24:54;12.25;;;7.50;;
62338;SDS011;48368;53.406;6.214;2023-06-10T00:27:21;10.93;;;7.20;;
62338;SDS011;48368;53.406;6.214;2023-06-10T00:29:47;12.57;;;7.15;;
62338;SDS011;48368;53.406;6.214;2023-06-10T00:32:13;10.95;;;7.25;;
62338;SDS011;48368;53.406;6.214;2023-06-10T00:34:38;12.18;;;6.95;;
62338;SDS011;48368;53.406;6.214;2023-06-10T00:37:04;12.80;;;6.72;;
62338;SDS011;48368;53.406;6.214;2023-06-10T00:39:30;12.00;;;7.15;;
62338;SDS011;48368;53.406;6.214;2023-06-10T00:41:56;12.82;;;7.30;;
62338;SDS011;48368;53.406;6.214;2023-06-10T00:44:21;13.27;;;6.43;;
62338;SDS011;48368;53.406;6.214;2023-06-10T00:46:47;13.90;;;6.95;;
62338;SDS011;48368;53.406;6.214;2023-06-10T00:49:15;11.25;;;6.82;;
62338;SDS011;48368;53.406;6.214;2023-06-10T00:51:41;13.50;;;6.93;;
62338;SDS011;48368;53.406;6.214;2023-06-10T00:54:07;13.40;;;6.97;;
62338;SDS011;48368;53.406;6.214;2023-06-10T00:56:34;11.55;;;6.40;;
62338;SDS011;48368;53.406;6.214;2023-06-10T00:59:00;14.32;;;7.75;;
62338;SDS011;48368;53.406;6.214;2023-06-10T01:01:26;14.50;;;7.00;;
62338;SDS011;48368;53.406;6.214;2023-06-10T01:03:51;11.30;;;7.13;;
62338;SDS011;48368;53.406;6.214;2023-06-10T01:08:55;12.57;;;6.85;;
62338;SDS011;48368;53.406;6.214;2023-06-10T01:11:41;10.20;;;6.63;;
62338;SDS011;48368;53.406;6.214;2023-06-10T01:14:12;12.95;;;6.93;;
62338;SDS011;48368;53.406;6.214;2023-06-10T01:16:39;11.48;;;7.00;;
62338;SDS011;48368;53.406;6.214;2023-06-10T01:19:05;10.60;;;7.00;;
62338;SDS011;48368;53.406;6.214;2023-06-10T01:21:32;12.07;;;7.20;;
62338;SDS011;48368;53.406;6.214;2023-06-10T01:24:00;10.73;;;6.70;;
62338;SDS011;48368;53.406;6.214;2023-06-10T01:26:29;12.63;;;7.18;;
62338;SDS011;48368;53.406;6.214;2023-06-10T01:28:58;15.10;;;8.63;;
62338;SDS011;48368;53.406;6.214;2023-06-10T01:34:11;9.52;;;6.75;;
62338;SDS011;48368;53.406;6.214;2023-06-10T01:36:40;11.63;;;6.82;;
62338;SDS011;48368;53.406;6.214;2023-06-10T01:39:08;11.48;;;7.20;;
62338;SDS011;48368;53.406;6.214;2023-06-10T01:41:36;10.90;;;6.78;;
62338;SDS011;48368;53.406;6.214;2023-06-10T01:44:03;12.82;;;6.88;;
62338;SDS011;48368;53.406;6.214;2023-06-10T01:46:28;11.05;;;6.65;;
62338;SDS011;48368;53.406;6.214;2023-06-10T01:48:54;12.18;;;6.38;;
62338;SDS011;48368;53.406;6.214;2023-06-10T01:51:21;11.43;;;5.95;;
62338;SDS011;48368;53.406;6.214;2023-06-10T01:53:46;11.57;;;6.32;;
62338;SDS011;48368;53.406;6.214;2023-06-10T01:56:12;9.93;;;6.38;;
62338;SDS011;48368;53.406;6.214;2023-06-10T01:58:42;8.95;;;5.55;;
62338;SDS011;48368;53.406;6.214;2023-06-10T02:01:09;8.23;;;5.88;;
62338;SDS011;48368;53.406;6.214;2023-06-10T02:03:34;11.77;;;5.93;;
62338;SDS011;48368;53.406;6.214;2023-06-10T02:06:00;12.57;;;6.40;;
62338;SDS011;48368;53.406;6.214;2023-06-10T02:08:26;11.65;;;6.00;;
62338;SDS011;48368;53.406;6.214;2023-06-10T02:10:52;11.48;;;6.35;;
62338;SDS011;48368;53.406;6.214;2023-06-10T02:13:18;10.23;;;6.78;;
62338;SDS011;48368;53.406;6.214;2023-06-10T02:15:44;12.57;;;6.95;;
62338;SDS011;48368;53.406;6.214;2023-06-10T02:18:10;16.33;;;6.68;;
62338;SDS011;48368;53.406;6.214;2023-06-10T02:20:37;14.15;;;7.47;;
62338;SDS011;48368;53.406;6.214;2023-06-10T02:23:05;12.30;;;7.40;;
62338;SDS011;48368;53.406;6.214;2023-06-10T02:25:31;13.55;;;7.65;;
62338;SDS011;48368;53.406;6.214;2023-06-10T02:27:56;11.38;;;7.78;;
62338;SDS011;48368;53.406;6.214;2023-06-10T02:30:22;13.52;;;7.95;;
62338;SDS011;48368;53.406;6.214;2023-06-10T02:32:48;12.65;;;7.75;;
62338;SDS011;48368;53.406;6.214;2023-06-10T02:35:15;13.90;;;7.93;;
62338;SDS011;48368;53.406;6.214;2023-06-10T02:37:42;13.20;;;6.82;;
62338;SDS011;48368;53.406;6.214;2023-06-10T02:40:08;11.38;;;7.43;;
62338;SDS011;48368;53.406;6.214;2023-06-10T02:42:35;12.20;;;7.10;;
62338;SDS011;48368;53.406;6.214;2023-06-10T02:45:01;11.18;;;7.05;;
62338;SDS011;48368;53.406;6.214;2023-06-10T02:47:27;11.70;;;7.38;;
62338;SDS011;48368;53.406;6.214;2023-06-10T02:49:52;11.30;;;7.68;;
62338;SDS011;48368;53.406;6.214;2023-06-10T02:52:18;12.68;;;7.85;;
62338;SDS011;48368;53.406;6.214;2023-06-10T02:54:43;13.85;;;8.60;;
62338;SDS011;48368;53.406;6.214;2023-06-10T02:57:10;14.95;;;8.73;;
62338;SDS011;48368;53.406;6.214;2023-06-10T02:59:36;17.30;;;7.75;;
62338;SDS011;48368;53.406;6.214;2023-06-10T03:02:02;15.18;;;9.10;;
62338;SDS011;48368;53.406;6.214;2023-06-10T03:04:27;14.52;;;8.38;;
62338;SDS011;48368;53.406;6.214;2023-06-10T03:06:54;13.75;;;8.63;;
62338;SDS011;48368;53.406;6.214;2023-06-10T03:09:19;15.43;;;8.30;;
62338;SDS011;48368;53.406;6.214;2023-06-10T03:11:45;12.48;;;8.43;;
62338;SDS011;48368;53.406;6.214;2023-06-10T03:14:11;15.02;;;8.18;;
62338;SDS011;48368;53.406;6.214;2023-06-10T03:16:37;14.32;;;8.40;;
62338;SDS011;48368;53.406;6.214;2023-06-10T03:19:06;17.48;;;8.40;;
62338;SDS011;48368;53.406;6.214;2023-06-10T03:21:33;12.07;;;8.10;;
62338;SDS011;48368;53.406;6.214;2023-06-10T03:24:03;17.08;;;8.00;;
62338;SDS011;48368;53.406;6.214;2023-06-10T03:26:30;15.23;;;8.25;;
62338;SDS011;48368;53.406;6.214;2023-06-10T03:28:55;14.30;;;8.63;;
62338;SDS011;48368;53.406;6.214;2023-06-10T03:31:21;16.77;;;8.95;;
62338;SDS011;48368;53.406;6.214;2023-06-10T03:33:47;15.88;;;8.43;;
62338;SDS011;48368;53.406;6.214;2023-06-10T03:36:12;14.23;;;8.77;;
62338;SDS011;48368;53.406;6.214;2023-06-10T03:38:38;16.35;;;9.45;;
62338;SDS011;48368;53.406;6.214;2023-06-10T03:41:04;20.58;;;9.57;;
62338;SDS011;48368;53.406;6.214;2023-06-10T03:43:29;17.65;;;8.13;;
62338;SDS011;48368;53.406;6.214;2023-06-10T03:45:56;14.82;;;8.00;;
62338;SDS011;48368;53.406;6.214;2023-06-10T03:48:22;14.68;;;8.98;;
62338;SDS011;48368;53.406;6.214;2023-06-10T03:50:47;15.98;;;8.38;;
62338;SDS011;48368;53.406;6.214;2023-06-10T03:53:15;20.80;;;8.57;;
62338;SDS011;48368;53.406;6.214;2023-06-10T03:55:41;18.63;;;8.00;;
62338;SDS011;48368;53.406;6.214;2023-06-10T03:58:07;13.45;;;7.93;;
62338;SDS011;48368;53.406;6.214;2023-06-10T04:00:33;17.63;;;8.52;;
62338;SDS011;48368;53.406;6.214;2023-06-10T04:03:06;15.13;;;8.48;;
62338;SDS011;48368;53.406;6.214;2023-06-10T04:05:34;13.85;;;8.32;;
62338;SDS011;48368;53.406;6.214;2023-06-10T04:07:59;13.07;;;8.73;;
62338;SDS011;48368;53.406;6.214;2023-06-10T04:10:26;14.73;;;7.53;;
62338;SDS011;48368;53.406;6.214;2023-06-10T04:12:52;14.45;;;8.00;;
62338;SDS011;48368;53.406;6.214;2023-06-10T04:15:17;16.20;;;8.18;;
62338;SDS011;48368;53.406;6.214;2023-06-10T04:17:43;15.75;;;7.88;;
62338;SDS011;48368;53.406;6.214;2023-06-10T04:20:09;14.68;;;8.18;;
62338;SDS011;48368;53.406;6.214;2023-06-10T04:22:36;18.95;;;8.45;;
62338;SDS011;48368;53.406;6.214;2023-06-10T04:25:02;12.75;;;7.93;;
62338;SDS011;48368;53.406;6.214;2023-06-10T04:27:28;16.27;;;8.13;;
62338;SDS011;48368;53.406;6.214;2023-06-10T04:29:54;16.17;;;7.63;;
62338;SDS011;48368;53.406;6.214;2023-06-10T04:32:20;15.90;;;8.70;;
62338;SDS011;48368;53.406;6.214;2023-06-10T04:34:46;14.68;;;8.65;;
62338;SDS011;48368;53.406;6.214;2023-06-10T04:37:12;15.10;;;7.45;;
62338;SDS011;48368;53.406;6.214;2023-06-10T04:39:38;13.13;;;7.60;;
62338;SDS011;48368;53.406;6.214;2023-06-10T04:42:04;13.43;;;7.45;;
62338;SDS011;48368;53.406;6.214;2023-06-10T04:44:30;13.98;;;7.93;;
62338;SDS011;48368;53.406;6.214;2023-06-10T04:46:56;15.65;;;7.72;;
62338;SDS011;48368;53.406;6.214;2023-06-10T04:49:21;13.57;;;8.15;;
62338;SDS011;48368;53.406;6.214;2023-06-10T04:51:47;14.90;;;7.60;;
62338;SDS011;48368;53.406;6.214;2023-06-10T04:54:13;12.15;;;7.70;;
62338;SDS011;48368;53.406;6.214;2023-06-10T04:56:38;14.40;;;7.65;;
62338;SDS011;48368;53.406;6.214;2023-06-10T04:59:04;15.50;;;8.00;;
62338;SDS011;48368;53.406;6.214;2023-06-10T05:01:30;13.68;;;7.78;;
62338;SDS011;48368;53.406;6.214;2023-06-10T05:03:56;15.27;;;8.07;;
62338;SDS011;48368;53.406;6.214;2023-06-10T05:06:21;12.55;;;7.55;;
62338;SDS011;48368;53.406;6.214;2023-06-10T05:08:47;18.90;;;8.50;;
62338;SDS011;48368;53.406;6.214;2023-06-10T05:11:12;14.20;;;7.57;;
62338;SDS011;48368;53.406;6.214;2023-06-10T05:13:38;13.85;;;7.68;;
62338;SDS011;48368;53.406;6.214;2023-06-10T05:16:05;10.68;;;7.25;;
62338;SDS011;48368;53.406;6.214;2023-06-10T05:18:31;15.40;;;7.40;;
62338;SDS011;48368;53.406;6.214;2023-06-10T05:20:57;13.98;;;8.00;;
62338;SDS011;48368;53.406;6.214;2023-06-10T05:23:24;14.68;;;7.85;;
62338;SDS011;48368;53.406;6.214;2023-06-10T05:25:50;11.98;;;7.40;;
62338;SDS011;48368;53.406;6.214;2023-06-10T05:28:15;12.90;;;6.97;;
62338;SDS011;48368;53.406;6.214;2023-06-10T05:30:41;12.07;;;6.85;;
62338;SDS011;48368;53.406;6.214;2023-06-10T05:33:07;13.70;;;7.43;;
62338;SDS011;48368;53.406;6.214;2023-06-10T05:35:32;12.35;;;7.15;;
62338;SDS011;48368;53.406;6.214;2023-06-10T05:37:58;12.50;;;7.47;;
62338;SDS011;48368;53.406;6.214;2023-06-10T05:40:24;12.20;;;6.82;;
62338;SDS011;48368;53.406;6.214;2023-06-10T05:42:49;14.18;;;7.28;;
62338;SDS011;48368;53.406;6.214;2023-06-10T05:45:15;13.30;;;7.05;;
62338;SDS011;48368;53.406;6.214;2023-06-10T05:47:41;13.80;;;6.80;;
62338;SDS011;48368;53.406;6.214;2023-06-10T05:50:06;12.98;;;6.72;;
62338;SDS011;48368;53.406;6.214;2023-06-10T05:52:34;12.38;;;6.38;;
62338;SDS011;48368;53.406;6.214;2023-06-10T05:55:00;13.23;;;7.82;;
62338;SDS011;48368;53.406;6.214;2023-06-10T05:57:25;11.32;;;6.63;;
62338;SDS011;48368;53.406;6.214;2023-06-10T05:59:51;12.95;;;6.22;;
62338;SDS011;48368;53.406;6.214;2023-06-10T06:02:17;15.00;;;6.70;;
62338;SDS011;48368;53.406;6.214;2023-06-10T06:04:43;14.25;;;6.40;;
62338;SDS011;48368;53.406;6.214;2023-06-10T06:07:09;12.13;;;6.38;;
62338;SDS011;48368;53.406;6.214;2023-06-10T06:09:34;10.70;;;5.80;;
62338;SDS011;48368;53.406;6.214;2023-06-10T06:12:00;13.25;;;5.95;;
62338;SDS011;48368;53.406;6.214;2023-06-10T06:14:26;9.82;;;6.07;;
62338;SDS011;48368;53.406;6.214;2023-06-10T06:16:51;12.18;;;6.32;;
62338;SDS011;48368;53.406;6.214;2023-06-10T06:19:17;13.00;;;6.22;;
62338;SDS011;48368;53.406;6.214;2023-06-10T06:21:42;11.95;;;6.13;;
62338;SDS011;48368;53.406;6.214;2023-06-10T06:24:08;10.93;;;6.30;;
62338;SDS011;48368;53.406;6.214;2023-06-10T06:26:34;11.38;;;6.38;;
62338;SDS011;48368;53.406;6.214;2023-06-10T06:29:00;15.57;;;7.20;;
62338;SDS011;48368;53.406;6.214;2023-06-10T06:31:25;13.60;;;6.80;;
62338;SDS011;48368;53.406;6.214;2023-06-10T06:33:51;10.45;;;6.38;;
62338;SDS011;48368;53.406;6.214;2023-06-10T06:36:16;10.30;;;6.03;;
62338;SDS011;48368;53.406;6.214;2023-06-10T06:38:42;10.63;;;6.47;;
62338;SDS011;48368;53.406;6.214;2023-06-10T06:41:08;13.63;;;6.90;;
62338;SDS011;48368;53.406;6.214;2023-06-10T06:43:33;10.57;;;6.43;;
62338;SDS011;48368;53.406;6.214;2023-06-10T06:45:59;11.68;;;6.47;;
62338;SDS011;48368;53.406;6.214;2023-06-10T06:48:25;11.30;;;6.07;;
62338;SDS011;48368;53.406;6.214;2023-06-10T06:50:51;10.15;;;5.93;;
62338;SDS011;48368;53.406;6.214;2023-06-10T06:53:16;9.30;;;5.40;;
62338;SDS011;48368;53.406;6.214;2023-06-10T06:55:42;12.07;;;5.82;;
62338;SDS011;48368;53.406;6.214;2023-06-10T06:58:08;10.63;;;6.10;;
62338;SDS011;48368;53.406;6.214;2023-06-10T07:00:33;8.90;;;6.00;;
62338;SDS011;48368;53.406;6.214;2023-06-10T07:02:59;10.27;;;6.03;;
62338;SDS011;48368;53.406;6.214;2023-06-10T07:05:25;8.07;;;5.75;;
62338;SDS011;48368;53.406;6.214;2023-06-10T07:07:54;11.13;;;5.32;;
62338;SDS011;48368;53.406;6.214;2023-06-10T07:10:24;11.13;;;6.10;;
62338;SDS011;48368;53.406;6.214;2023-06-10T07:12:50;12.55;;;6.85;;
62338;SDS011;48368;53.406;6.214;2023-06-10T07:15:16;9.45;;;6.13;;
62338;SDS011;48368;53.406;6.214;2023-06-10T07:17:42;14.38;;;6.88;;
62338;SDS011;48368;53.406;6.214;2023-06-10T07:20:08;10.73;;;7.35;;
62338;SDS011;48368;53.406;6.214;2023-06-10T07:22:34;12.07;;;6.07;;
62338;SDS011;48368;53.406;6.214;2023-06-10T07:25:00;10.98;;;6.40;;
62338;SDS011;48368;53.406;6.214;2023-06-10T07:27:26;11.25;;;6.40;;
62338;SDS011;48368;53.406;6.214;2023-06-10T07:29:51;12.00;;;5.30;;
62338;SDS011;48368;53.406;6.214;2023-06-10T07:32:17;13.38;;;6.68;;
62338;SDS011;48368;53.406;6.214;2023-06-10T07:34:45;13.75;;;6.30;;
62338;SDS011;48368;53.406;6.214;2023-06-10T07:37:11;10.02;;;5.75;;
62338;SDS011;48368;53.406;6.214;2023-06-10T07:39:36;11.88;;;7.75;;
62338;SDS011;48368;53.406;6.214;2023-06-10T07:42:02;12.63;;;7.60;;
62338;SDS011;48368;53.406;6.214;2023-06-10T07:44:28;12.70;;;7.22;;
62338;SDS011;48368;53.406;6.214;2023-06-10T07:46:53;12.05;;;7.28;;
62338;SDS011;48368;53.406;6.214;2023-06-10T07:49:19;11.70;;;6.85;;
62338;SDS011;48368;53.406;6.214;2023-06-10T07:51:45;10.20;;;7.20;;
62338;SDS011;48368;53.406;6.214;2023-06-10T07:54:10;11.15;;;7.00;;
62338;SDS011;48368;53.406;6.214;2023-06-10T07:56:37;11.75;;;7.65;;
62338;SDS011;48368;53.406;6.214;2023-06-10T07:59:03;13.02;;;7.40;;
62338;SDS011;48368;53.406;6.214;2023-06-10T08:01:29;11.68;;;6.40;;
62338;SDS011;48368;53.406;6.214;2023-06-10T08:03:55;9.18;;;5.90;;
62338;SDS011;48368;53.406;6.214;2023-06-10T08:06:20;13.20;;;7.18;;
62338;SDS011;48368;53.406;6.214;2023-06-10T08:08:46;10.68;;;6.75;;
62338;SDS011;48368;53.406;6.214;2023-06-10T08:11:12;15.38;;;6.40;;
62338;SDS011;48368;53.406;6.214;2023-06-10T08:13:38;11.80;;;6.28;;
62338;SDS011;48368;53.406;6.214;2023-06-10T08:16:05;10.27;;;6.07;;
62338;SDS011;48368;53.406;6.214;2023-06-10T08:18:30;14.90;;;6.10;;
62338;SDS011;48368;53.406;6.214;2023-06-10T08:20:56;10.20;;;5.78;;
62338;SDS011;48368;53.406;6.214;2023-06-10T08:23:24;11.00;;;5.80;;
62338;SDS011;48368;53.406;6.214;2023-06-10T08:25:51;10.07;;;5.78;;
62338;SDS011;48368;53.406;6.214;2023-06-10T08:28:18;13.30;;;6.57;;
62338;SDS011;48368;53.406;6.214;2023-06-10T08:30:43;10.40;;;5.53;;
62338;SDS011;48368;53.406;6.214;2023-06-10T08:33:10;9.80;;;5.25;;
62338;SDS011;48368;53.406;6.214;2023-06-10T08:35:35;8.93;;;5.50;;
62338;SDS011;48368;53.406;6.214;2023-06-10T08:38:01;11.15;;;5.43;;
62338;SDS011;48368;53.406;6.214;2023-06-10T08:40:26;10.07;;;5.45;;
62338;SDS011;48368;53.406;6.214;2023-06-10T08:43:10;7.25;;;4.90;;
62338;SDS011;48368;53.406;6.214;2023-06-10T08:45:42;13.32;;;6.18;;
62338;SDS011;48368;53.406;6.214;2023-06-10T08:48:10;10.02;;;5.80;;
62338;SDS011;48368;53.406;6.214;2023-06-10T08:50:37;10.57;;;5.55;;
62338;SDS011;48368;53.406;6.214;2023-06-10T08:53:06;14.55;;;5.85;;
62338;SDS011;48368;53.406;6.214;2023-06-10T08:55:34;13.38;;;6.03;;
62338;SDS011;48368;53.406;6.214;2023-06-10T08:58:02;10.40;;;5.60;;
62338;SDS011;48368;53.406;6.214;2023-06-10T09:00:29;8.68;;;5.53;;
62338;SDS011;48368;53.406;6.214;2023-06-10T09:02:56;10.63;;;5.40;;
62338;SDS011;48368;53.406;6.214;2023-06-10T09:05:23;12.15;;;5.53;;
62338;SDS011;48368;53.406;6.214;2023-06-10T09:07:49;10.57;;;7.05;;
62338;SDS011;48368;53.406;6.214;2023-06-10T09:10:17;12.27;;;6.05;;
62338;SDS011;48368;53.406;6.214;2023-06-10T09:12:43;10.07;;;6.80;;
62338;SDS011;48368;53.406;6.214;2023-06-10T09:15:09;11.45;;;6.47;;
62338;SDS011;48368;53.406;6.214;2023-06-10T09:17:36;10.48;;;5.25;;
62338;SDS011;48368;53.406;6.214;2023-06-10T09:20:03;12.48;;;6.90;;
62338;SDS011;48368;53.406;6.214;2023-06-10T09:22:29;10.50;;;5.72;;
62338;SDS011;48368;53.406;6.214;2023-06-10T09:25:02;10.02;;;5.47;;
62338;SDS011;48368;53.406;6.214;2023-06-10T09:27:32;12.18;;;6.20;;
62338;SDS011;48368;53.406;6.214;2023-06-10T09:29:58;10.70;;;5.43;;
62338;SDS011;48368;53.406;6.214;2023-06-10T09:32:23;11.00;;;6.25;;
62338;SDS011;48368;53.406;6.214;2023-06-10T09:34:50;8.35;;;4.82;;
62338;SDS011;48368;53.406;6.214;2023-06-10T09:37:25;10.02;;;6.00;;
62338;SDS011;48368;53.406;6.214;2023-06-10T09:40:01;10.35;;;5.28;;
62338;SDS011;48368;53.406;6.214;2023-06-10T09:42:34;10.25;;;6.03;;
62338;SDS011;48368;53.406;6.214;2023-06-10T09:45:01;10.55;;;6.82;;
62338;SDS011;48368;53.406;6.214;2023-06-10T09:47:28;13.23;;;6.43;;
62338;SDS011;48368;53.406;6.214;2023-06-10T09:49:54;11.05;;;7.05;;
62338;SDS011;48368;53.406;6.214;2023-06-10T09:52:26;12.77;;;6.30;;
62338;SDS011;48368;53.406;6.214;2023-06-10T09:54:58;11.30;;;6.35;;
62338;SDS011;48368;53.406;6.214;2023-06-10T09:57:25;10.02;;;6.43;;
62338;SDS011;48368;53.406;6.214;2023-06-10T09:59:55;11.40;;;6.18;;
62338;SDS011;48368;53.406;6.214;2023-06-10T10:02:21;12.88;;;6.90;;
62338;SDS011;48368;53.406;6.214;2023-06-10T10:04:46;15.30;;;8.23;;
62338;SDS011;48368;53.406;6.214;2023-06-10T10:07:12;10.77;;;7.00;;
62338;SDS011;48368;53.406;6.214;2023-06-10T10:09:39;11.35;;;6.75;;
62338;SDS011;48368;53.406;6.214;2023-06-10T10:12:15;13.55;;;6.97;;
62338;SDS011;48368;53.406;6.214;2023-06-10T10:14:43;11.20;;;7.03;;
62338;SDS011;48368;53.406;6.214;2023-06-10T10:17:13;11.18;;;6.55;;
62338;SDS011;48368;53.406;6.214;2023-06-10T10:19:43;14.60;;;7.43;;
62338;SDS011;48368;53.406;6.214;2023-06-10T10:22:20;10.98;;;7.40;;
62338;SDS011;48368;53.406;6.214;2023-06-10T10:24:55;12.50;;;7.90;;
62338;SDS011;48368;53.406;6.214;2023-06-10T10:27:26;13.15;;;8.80;;
62338;SDS011;48368;53.406;6.214;2023-06-10T10:29:55;13.25;;;8.02;;
62338;SDS011;48368;53.406;6.214;2023-06-10T10:32:26;12.73;;;7.80;;
62338;SDS011;48368;53.406;6.214;2023-06-10T10:35:10;12.52;;;8.18;;
62338;SDS011;48368;53.406;6.214;2023-06-10T10:37:42;11.70;;;7.65;;
62338;SDS011;48368;53.406;6.214;2023-06-10T10:40:08;11.88;;;8.43;;
62338;SDS011;48368;53.406;6.214;2023-06-10T10:42:34;12.90;;;8.05;;
62338;SDS011;48368;53.406;6.214;2023-06-10T10:45:01;11.40;;;7.55;;
62338;SDS011;48368;53.406;6.214;2023-06-10T10:47:28;14.63;;;7.18;;
62338;SDS011;48368;53.406;6.214;2023-06-10T10:49:55;12.13;;;8.13;;
62338;SDS011;48368;53.406;6.214;2023-06-10T10:52:24;11.18;;;7.97;;
62338;SDS011;48368;53.406;6.214;2023-06-10T10:54:52;17.20;;;8.07;;
62338;SDS011;48368;53.406;6.214;2023-06-10T10:57:22;11.55;;;6.22;;
62338;SDS011;48368;53.406;6.214;2023-06-10T11:02:17;13.98;;;8.35;;
62338;SDS011;48368;53.406;6.214;2023-06-10T11:04:56;18.42;;;9.02;;
62338;SDS011;48368;53.406;6.214;2023-06-10T11:07:24;15.15;;;8.60;;
62338;SDS011;48368;53.406;6.214;2023-06-10T11:10:00;14.73;;;8.65;;
62338;SDS011;48368;53.406;6.214;2023-06-10T11:12:41;18.67;;;9.25;;
62338;SDS011;48368;53.406;6.214;2023-06-10T11:15:10;13.93;;;7.55;;
62338;SDS011;48368;53.406;6.214;2023-06-10T11:17:36;17.17;;;7.95;;
62338;SDS011;48368;53.406;6.214;2023-06-10T11:20:02;12.75;;;7.57;;
62338;SDS011;48368;53.406;6.214;2023-06-10T11:22:28;19.42;;;8.70;;
62338;SDS011;48368;53.406;6.214;2023-06-10T11:24:56;14.30;;;7.75;;
62338;SDS011;48368;53.406;6.214;2023-06-10T11:27:24;15.60;;;9.25;;
62338;SDS011;48368;53.406;6.214;2023-06-10T11:29:58;19.75;;;8.73;;
62338;SDS011;48368;53.406;6.214;2023-06-10T11:32:45;13.82;;;8.98;;
62338;SDS011;48368;53.406;6.214;2023-06-10T11:35:16;20.83;;;9.40;;
62338;SDS011;48368;53.406;6.214;2023-06-10T11:37:44;14.60;;;8.73;;
62338;SDS011;48368;53.406;6.214;2023-06-10T11:40:10;18.48;;;8.57;;
62338;SDS011;48368;53.406;6.214;2023-06-10T11:42:40;20.52;;;9.45;;
62338;SDS011;48368;53.406;6.214;2023-06-10T11:45:07;19.95;;;8.52;;
62338;SDS011;48368;53.406;6.214;2023-06-10T11:47:33;13.10;;;9.00;;
62338;SDS011;48368;53.406;6.214;2023-06-10T11:49:59;16.20;;;8.15;;
62338;SDS011;48368;53.406;6.214;2023-06-10T11:52:30;18.17;;;8.77;;
62338;SDS011;48368;53.406;6.214;2023-06-10T11:54:58;16.27;;;7.55;;
62338;SDS011;48368;53.406;6.214;2023-06-10T11:57:24;16.40;;;7.18;;
62338;SDS011;48368;53.406;6.214;2023-06-10T11:59:50;17.90;;;7.45;;
62338;SDS011;48368;53.406;6.214;2023-06-10T12:02:16;14.88;;;7.72;;
62338;SDS011;48368;53.406;6.214;2023-06-10T12:04:42;15.32;;;7.03;;
62338;SDS011;48368;53.406;6.214;2023-06-10T12:07:07;17.30;;;8.43;;
62338;SDS011;48368;53.406;6.214;2023-06-10T12:09:33;20.45;;;7.90;;
62338;SDS011;48368;53.406;6.214;2023-06-10T12:12:03;19.13;;;8.23;;
62338;SDS011;48368;53.406;6.214;2023-06-10T12:19:59;15.52;;;6.20;;
62338;SDS011;48368;53.406;6.214;2023-06-10T12:22:26;13.45;;;5.32;;
62338;SDS011;48368;53.406;6.214;2023-06-10T12:24:59;14.90;;;5.20;;
62338;SDS011;48368;53.406;6.214;2023-06-10T12:27:26;14.27;;;4.95;;
62338;SDS011;48368;53.406;6.214;2023-06-10T12:29:55;13.55;;;5.38;;
62338;SDS011;48368;53.406;6.214;2023-06-10T12:32:35;17.42;;;4.70;;
62338;SDS011;48368;53.406;6.214;2023-06-10T12:35:08;20.58;;;5.10;;
62338;SDS011;48368;53.406;6.214;2023-06-10T12:37:35;12.80;;;4.22;;
62338;SDS011;48368;53.406;6.214;2023-06-10T12:40:04;14.20;;;4.30;;
62338;SDS011;48368;53.406;6.214;2023-06-10T12:42:31;14.52;;;4.82;;
62338;SDS011;48368;53.406;6.214;2023-06-10T12:45:01;12.15;;;4.38;;
62338;SDS011;48368;53.406;6.214;2023-06-10T12:47:31;10.50;;;4.20;;
62338;SDS011;48368;53.406;6.214;2023-06-10T12:49:59;17.75;;;4.25;;
62338;SDS011;48368;53.406;6.214;2023-06-10T12:52:26;13.20;;;4.20;;
62338;SDS011;48368;53.406;6.214;2023-06-10T12:54:51;13.55;;;4.63;;
62338;SDS011;48368;53.406;6.214;2023-06-10T12:57:17;13.95;;;4.18;;
62338;SDS011;48368;53.406;6.214;2023-06-10T12:59:43;11.82;;;4.10;;
62338;SDS011;48368;53.406;6.214;2023-06-10T13:02:17;17.30;;;4.45;;
62338;SDS011;48368;53.406;6.214;2023-06-10T13:04:48;19.73;;;4.60;;
62338;SDS011;48368;53.406;6.214;2023-06-10T13:07:14;14.80;;;4.43;;
62338;SDS011;48368;53.406;6.214;2023-06-10T13:09:41;13.07;;;4.60;;
62338;SDS011;48368;53.406;6.214;2023-06-10T13:12:07;13.05;;;4.32;;
62338;SDS011;48368;53.406;6.214;2023-06-10T13:14:33;12.18;;;4.15;;
62338;SDS011;48368;53.406;6.214;2023-06-10T13:16:59;12.23;;;4.00;;
62338;SDS011;48368;53.406;6.214;2023-06-10T13:19:24;12.85;;;4.07;;
62338;SDS011;48368;53.406;6.214;2023-06-10T13:21:51;24.30;;;5.50;;
62338;SDS011;48368;53.406;6.214;2023-06-10T13:24:17;13.98;;;4.22;;
62338;SDS011;48368;53.406;6.214;2023-06-10T13:26:43;13.90;;;4.00;;
62338;SDS011;48368;53.406;6.214;2023-06-10T13:29:11;18.05;;;4.10;;
62338;SDS011;48368;53.406;6.214;2023-06-10T13:31:39;14.48;;;4.03;;
62338;SDS011;48368;53.406;6.214;2023-06-10T13:34:05;14.32;;;3.83;;
62338;SDS011;48368;53.406;6.214;2023-06-10T13:36:31;12.13;;;4.55;;
62338;SDS011;48368;53.406;6.214;2023-06-10T13:38:57;13.13;;;4.00;;
62338;SDS011;48368;53.406;6.214;2023-06-10T13:41:23;11.18;;;3.83;;
62338;SDS011;48368;53.406;6.214;2023-06-10T13:43:49;12.38;;;4.63;;
62338;SDS011;48368;53.406;6.214;2023-06-10T13:46:15;16.75;;;4.07;;
62338;SDS011;48368;53.406;6.214;2023-06-10T13:48:40;10.05;;;3.67;;
62338;SDS011;48368;53.406;6.214;2023-06-10T13:51:06;13.93;;;4.20;;
62338;SDS011;48368;53.406;6.214;2023-06-10T13:53:34;16.17;;;3.85;;
62338;SDS011;48368;53.406;6.214;2023-06-10T13:55:59;15.20;;;4.10;;
62338;SDS011;48368;53.406;6.214;2023-06-10T13:58:25;13.32;;;4.13;;
62338;SDS011;48368;53.406;6.214;2023-06-10T14:00:51;11.98;;;4.85;;
62338;SDS011;48368;53.406;6.214;2023-06-10T14:03:17;16.92;;;5.07;;
62338;SDS011;48368;53.406;6.214;2023-06-10T14:05:43;15.60;;;5.40;;
62338;SDS011;48368;53.406;6.214;2023-06-10T14:08:08;13.55;;;4.50;;
62338;SDS011;48368;53.406;6.214;2023-06-10T14:10:34;13.77;;;4.90;;
62338;SDS011;48368;53.406;6.214;2023-06-10T14:12:59;13.85;;;4.55;;
62338;SDS011;48368;53.406;6.214;2023-06-10T14:15:25;17.10;;;4.40;;
62338;SDS011;48368;53.406;6.214;2023-06-10T14:17:51;17.02;;;4.70;;
62338;SDS011;48368;53.406;6.214;2023-06-10T14:20:17;13.60;;;4.30;;
62338;SDS011;48368;53.406;6.214;2023-06-10T14:22:42;11.82;;;3.92;;
62338;SDS011;48368;53.406;6.214;2023-06-10T14:25:08;12.38;;;4.13;;
62338;SDS011;48368;53.406;6.214;2023-06-10T14:27:34;10.20;;;3.88;;
62338;SDS011;48368;53.406;6.214;2023-06-10T14:29:59;11.63;;;4.40;;
62338;SDS011;48368;53.406;6.214;2023-06-10T14:32:25;17.15;;;4.82;;
62338;SDS011;48368;53.406;6.214;2023-06-10T14:34:51;12.80;;;4.25;;
62338;SDS011;48368;53.406;6.214;2023-06-10T14:37:16;15.07;;;4.03;;
62338;SDS011;48368;53.406;6.214;2023-06-10T14:39:42;13.45;;;4.10;;
62338;SDS011;48368;53.406;6.214;2023-06-10T14:42:08;15.43;;;4.43;;
62338;SDS011;48368;53.406;6.214;2023-06-10T14:44:33;12.00;;;3.78;;
62338;SDS011;48368;53.406;6.214;2023-06-10T14:46:59;9.45;;;4.13;;